sensor_id;sensor_type;location;lat;lon;timestamp;P1;durP1;ratioP1;P2;durP2;ratioP2
17133;SDS011;8682;52.120;5.252;2022-11-20T00:01:27;17.23;;;11.27;;
17133;SDS011;8682;52.120;5.252;2022-11-20T00:03:55;18.80;;;12.50;;
17133;SDS011;8682;52.120;5.252;2022-11-20T00:06:22;19.80;;;12.50;;
17133;SDS011;8682;52.120;5.252;2022-11-20T00:08:50;27.10;;;12.53;;
17133;SDS011;8682;52.120;5.252;2022-11-20T00:11:18;30.93;;;14.87;;
17133;SDS011;8682;52.120;5.252;2022-11-20T00:13:45;21.67;;;11.73;;
17133;SDS011;8682;52.120;5.252;2022-11-20T00:16:15;20.10;;;11.93;;
17133;SDS011;8682;52.120;5.252;2022-11-20T00:18:42;18.30;;;9.73;;
17133;SDS011;8682;52.120;5.252;2022-11-20T00:21:11;13.10;;;10.27;;
17133;SDS011;8682;52.120;5.252;2022-11-20T00:23:38;19.57;;;10.50;;
17133;SDS011;8682;52.120;5.252;2022-11-20T00:26:06;15.27;;;9.93;;
17133;SDS011;8682;52.120;5.252;2022-11-20T00:28:34;17.57;;;10.87;;
17133;SDS011;8682;52.120;5.252;2022-11-20T00:31:02;14.63;;;11.20;;
17133;SDS011;8682;52.120;5.252;2022-11-20T00:33:31;18.53;;;12.30;;
17133;SDS011;8682;52.120;5.252;2022-11-20T00:36:01;23.50;;;11.37;;
17133;SDS011;8682;52.120;5.252;2022-11-20T00:38:29;17.57;;;11.77;;
17133;SDS011;8682;52.120;5.252;2022-11-20T00:40:56;13.83;;;10.57;;
17133;SDS011;8682;52.120;5.252;2022-11-20T00:43:24;17.50;;;11.77;;
17133;SDS011;8682;52.120;5.252;2022-11-20T00:45:55;15.07;;;10.33;;
17133;SDS011;8682;52.120;5.252;2022-11-20T00:48:23;26.30;;;13.10;;
17133;SDS011;8682;52.120;5.252;2022-11-20T00:50:51;47.10;;;18.93;;
17133;SDS011;8682;52.120;5.252;2022-11-20T00:53:18;40.23;;;16.67;;
17133;SDS011;8682;52.120;5.252;2022-11-20T00:55:52;28.50;;;15.10;;
17133;SDS011;8682;52.120;5.252;2022-11-20T00:58:19;23.47;;;16.50;;
17133;SDS011;8682;52.120;5.252;2022-11-20T01:00:47;21.20;;;18.93;;
17133;SDS011;8682;52.120;5.252;2022-11-20T01:03:15;22.17;;;19.77;;
17133;SDS011;8682;52.120;5.252;2022-11-20T01:05:42;19.60;;;17.83;;
17133;SDS011;8682;52.120;5.252;2022-11-20T01:08:11;19.57;;;17.67;;
17133;SDS011;8682;52.120;5.252;2022-11-20T01:10:38;16.87;;;15.27;;
17133;SDS011;8682;52.120;5.252;2022-11-20T01:13:05;15.27;;;13.90;;
17133;SDS011;8682;52.120;5.252;2022-11-20T01:15:50;15.87;;;14.13;;
17133;SDS011;8682;52.120;5.252;2022-11-20T01:18:17;16.67;;;13.47;;
17133;SDS011;8682;52.120;5.252;2022-11-20T01:20:44;14.40;;;12.80;;
17133;SDS011;8682;52.120;5.252;2022-11-20T01:23:13;13.03;;;11.33;;
17133;SDS011;8682;52.120;5.252;2022-11-20T01:25:40;12.93;;;11.67;;
17133;SDS011;8682;52.120;5.252;2022-11-20T01:28:07;11.60;;;10.47;;
17133;SDS011;8682;52.120;5.252;2022-11-20T01:30:34;11.60;;;10.40;;
17133;SDS011;8682;52.120;5.252;2022-11-20T01:33:02;15.27;;;11.03;;
17133;SDS011;8682;52.120;5.252;2022-11-20T01:35:29;12.23;;;10.57;;
17133;SDS011;8682;52.120;5.252;2022-11-20T01:37:56;11.50;;;10.47;;
17133;SDS011;8682;52.120;5.252;2022-11-20T01:40:24;12.77;;;11.33;;
17133;SDS011;8682;52.120;5.252;2022-11-20T01:42:53;14.97;;;10.80;;
17133;SDS011;8682;52.120;5.252;2022-11-20T01:45:52;16.83;;;13.07;;
17133;SDS011;8682;52.120;5.252;2022-11-20T01:48:22;24.03;;;15.40;;
17133;SDS011;8682;52.120;5.252;2022-11-20T01:50:50;15.10;;;13.43;;
17133;SDS011;8682;52.120;5.252;2022-11-20T01:53:18;13.93;;;12.70;;
17133;SDS011;8682;52.120;5.252;2022-11-20T01:55:49;15.63;;;13.27;;
17133;SDS011;8682;52.120;5.252;2022-11-20T01:58:17;14.37;;;13.27;;
17133;SDS011;8682;52.120;5.252;2022-11-20T02:00:46;13.97;;;12.50;;
17133;SDS011;8682;52.120;5.252;2022-11-20T02:03:15;14.13;;;12.87;;
17133;SDS011;8682;52.120;5.252;2022-11-20T02:05:44;16.27;;;13.93;;
17133;SDS011;8682;52.120;5.252;2022-11-20T02:08:12;15.07;;;13.77;;
17133;SDS011;8682;52.120;5.252;2022-11-20T02:10:39;15.77;;;14.20;;
17133;SDS011;8682;52.120;5.252;2022-11-20T02:13:08;16.63;;;14.90;;
17133;SDS011;8682;52.120;5.252;2022-11-20T02:15:52;15.40;;;14.00;;
17133;SDS011;8682;52.120;5.252;2022-11-20T02:18:20;16.60;;;15.27;;
17133;SDS011;8682;52.120;5.252;2022-11-20T02:20:48;16.40;;;14.93;;
17133;SDS011;8682;52.120;5.252;2022-11-20T02:23:16;14.83;;;13.30;;
17133;SDS011;8682;52.120;5.252;2022-11-20T02:25:49;20.57;;;18.43;;
17133;SDS011;8682;52.120;5.252;2022-11-20T02:28:17;19.07;;;17.23;;
17133;SDS011;8682;52.120;5.252;2022-11-20T02:30:44;20.00;;;18.27;;
17133;SDS011;8682;52.120;5.252;2022-11-20T02:33:12;22.20;;;19.73;;
17133;SDS011;8682;52.120;5.252;2022-11-20T02:35:40;22.27;;;20.30;;
17133;SDS011;8682;52.120;5.252;2022-11-20T02:38:08;22.57;;;20.83;;
17133;SDS011;8682;52.120;5.252;2022-11-20T02:40:35;22.47;;;20.47;;
17133;SDS011;8682;52.120;5.252;2022-11-20T02:43:04;20.60;;;19.17;;
17133;SDS011;8682;52.120;5.252;2022-11-20T02:45:31;23.50;;;21.33;;
17133;SDS011;8682;52.120;5.252;2022-11-20T02:47:58;23.17;;;21.40;;
17133;SDS011;8682;52.120;5.252;2022-11-20T02:50:25;23.47;;;21.50;;
17133;SDS011;8682;52.120;5.252;2022-11-20T02:52:52;22.37;;;20.37;;
17133;SDS011;8682;52.120;5.252;2022-11-20T02:55:19;21.93;;;20.10;;
17133;SDS011;8682;52.120;5.252;2022-11-20T02:57:47;24.33;;;22.07;;
17133;SDS011;8682;52.120;5.252;2022-11-20T03:00:15;20.97;;;19.10;;
17133;SDS011;8682;52.120;5.252;2022-11-20T03:02:43;22.77;;;20.63;;
17133;SDS011;8682;52.120;5.252;2022-11-20T03:05:10;20.90;;;19.47;;
17133;SDS011;8682;52.120;5.252;2022-11-20T03:07:37;21.90;;;19.97;;
17133;SDS011;8682;52.120;5.252;2022-11-20T03:10:05;25.23;;;22.70;;
17133;SDS011;8682;52.120;5.252;2022-11-20T03:12:32;24.70;;;22.47;;
17133;SDS011;8682;52.120;5.252;2022-11-20T03:14:59;22.57;;;20.70;;
17133;SDS011;8682;52.120;5.252;2022-11-20T03:17:28;21.07;;;19.50;;
17133;SDS011;8682;52.120;5.252;2022-11-20T03:19:55;21.57;;;19.80;;
17133;SDS011;8682;52.120;5.252;2022-11-20T03:22:23;22.63;;;20.70;;
17133;SDS011;8682;52.120;5.252;2022-11-20T03:24:50;23.67;;;21.93;;
17133;SDS011;8682;52.120;5.252;2022-11-20T03:27:17;23.37;;;21.37;;
17133;SDS011;8682;52.120;5.252;2022-11-20T03:29:44;24.10;;;22.10;;
17133;SDS011;8682;52.120;5.252;2022-11-20T03:32:11;22.83;;;21.17;;
17133;SDS011;8682;52.120;5.252;2022-11-20T03:34:40;22.10;;;20.60;;
17133;SDS011;8682;52.120;5.252;2022-11-20T03:37:07;23.13;;;21.20;;
17133;SDS011;8682;52.120;5.252;2022-11-20T03:39:34;23.93;;;22.07;;
17133;SDS011;8682;52.120;5.252;2022-11-20T03:42:01;23.73;;;21.73;;
17133;SDS011;8682;52.120;5.252;2022-11-20T03:44:48;23.77;;;21.97;;
17133;SDS011;8682;52.120;5.252;2022-11-20T03:47:15;23.10;;;21.50;;
17133;SDS011;8682;52.120;5.252;2022-11-20T03:49:45;24.30;;;22.33;;
17133;SDS011;8682;52.120;5.252;2022-11-20T03:52:12;24.43;;;22.47;;
17133;SDS011;8682;52.120;5.252;2022-11-20T03:54:39;21.83;;;20.23;;
17133;SDS011;8682;52.120;5.252;2022-11-20T03:57:06;23.77;;;22.27;;
17133;SDS011;8682;52.120;5.252;2022-11-20T03:59:34;22.40;;;20.77;;
17133;SDS011;8682;52.120;5.252;2022-11-20T04:02:01;21.77;;;19.70;;
17133;SDS011;8682;52.120;5.252;2022-11-20T04:04:28;21.73;;;19.60;;
17133;SDS011;8682;52.120;5.252;2022-11-20T04:06:57;19.67;;;18.23;;
17133;SDS011;8682;52.120;5.252;2022-11-20T04:09:24;19.67;;;17.90;;
17133;SDS011;8682;52.120;5.252;2022-11-20T04:11:51;18.53;;;17.00;;
17133;SDS011;8682;52.120;5.252;2022-11-20T04:14:18;18.60;;;17.10;;
17133;SDS011;8682;52.120;5.252;2022-11-20T04:16:45;19.03;;;17.43;;
17133;SDS011;8682;52.120;5.252;2022-11-20T04:19:13;18.03;;;16.43;;
17133;SDS011;8682;52.120;5.252;2022-11-20T04:21:41;16.47;;;14.97;;
17133;SDS011;8682;52.120;5.252;2022-11-20T04:24:10;14.57;;;13.00;;
17133;SDS011;8682;52.120;5.252;2022-11-20T04:26:37;12.93;;;10.53;;
17133;SDS011;8682;52.120;5.252;2022-11-20T04:29:05;16.70;;;10.87;;
17133;SDS011;8682;52.120;5.252;2022-11-20T04:31:32;11.13;;;10.13;;
17133;SDS011;8682;52.120;5.252;2022-11-20T04:34:00;11.17;;;9.77;;
17133;SDS011;8682;52.120;5.252;2022-11-20T04:36:28;11.57;;;10.43;;
17133;SDS011;8682;52.120;5.252;2022-11-20T04:38:55;10.73;;;9.50;;
17133;SDS011;8682;52.120;5.252;2022-11-20T04:41:24;13.33;;;10.83;;
17133;SDS011;8682;52.120;5.252;2022-11-20T04:43:53;10.27;;;9.27;;
17133;SDS011;8682;52.120;5.252;2022-11-20T04:46:24;14.30;;;10.93;;
17133;SDS011;8682;52.120;5.252;2022-11-20T04:48:51;14.27;;;12.23;;
17133;SDS011;8682;52.120;5.252;2022-11-20T04:51:19;12.17;;;11.10;;
17133;SDS011;8682;52.120;5.252;2022-11-20T04:53:46;11.60;;;10.53;;
17133;SDS011;8682;52.120;5.252;2022-11-20T04:56:13;13.73;;;11.50;;
17133;SDS011;8682;52.120;5.252;2022-11-20T04:58:42;12.07;;;11.07;;
17133;SDS011;8682;52.120;5.252;2022-11-20T05:01:10;10.90;;;8.90;;
17133;SDS011;8682;52.120;5.252;2022-11-20T05:03:37;10.17;;;8.27;;
17133;SDS011;8682;52.120;5.252;2022-11-20T05:06:05;9.67;;;7.63;;
17133;SDS011;8682;52.120;5.252;2022-11-20T05:08:32;8.23;;;7.13;;
17133;SDS011;8682;52.120;5.252;2022-11-20T05:11:00;10.70;;;7.57;;
17133;SDS011;8682;52.120;5.252;2022-11-20T05:13:27;12.60;;;8.37;;
17133;SDS011;8682;52.120;5.252;2022-11-20T05:15:59;12.40;;;9.33;;
17133;SDS011;8682;52.120;5.252;2022-11-20T05:18:27;13.67;;;8.77;;
17133;SDS011;8682;52.120;5.252;2022-11-20T05:20:55;11.90;;;8.43;;
17133;SDS011;8682;52.120;5.252;2022-11-20T05:23:22;11.80;;;8.77;;
17133;SDS011;8682;52.120;5.252;2022-11-20T05:25:51;12.17;;;8.60;;
17133;SDS011;8682;52.120;5.252;2022-11-20T05:28:19;8.63;;;7.80;;
17133;SDS011;8682;52.120;5.252;2022-11-20T05:30:46;11.83;;;8.03;;
17133;SDS011;8682;52.120;5.252;2022-11-20T05:33:14;13.17;;;9.27;;
17133;SDS011;8682;52.120;5.252;2022-11-20T05:35:42;7.40;;;6.70;;
17133;SDS011;8682;52.120;5.252;2022-11-20T05:38:09;8.50;;;7.70;;
17133;SDS011;8682;52.120;5.252;2022-11-20T05:40:36;9.03;;;8.13;;
17133;SDS011;8682;52.120;5.252;2022-11-20T05:43:04;9.30;;;7.87;;
17133;SDS011;8682;52.120;5.252;2022-11-20T05:45:31;15.17;;;8.03;;
17133;SDS011;8682;52.120;5.252;2022-11-20T05:47:58;7.53;;;6.87;;
17133;SDS011;8682;52.120;5.252;2022-11-20T05:50:27;14.90;;;8.60;;
17133;SDS011;8682;52.120;5.252;2022-11-20T05:52:55;9.50;;;8.50;;
17133;SDS011;8682;52.120;5.252;2022-11-20T05:55:24;10.40;;;7.13;;
17133;SDS011;8682;52.120;5.252;2022-11-20T05:57:51;11.33;;;8.77;;
17133;SDS011;8682;52.120;5.252;2022-11-20T06:00:19;12.27;;;7.90;;
17133;SDS011;8682;52.120;5.252;2022-11-20T06:02:46;9.83;;;7.37;;
17133;SDS011;8682;52.120;5.252;2022-11-20T06:05:13;11.13;;;8.73;;
17133;SDS011;8682;52.120;5.252;2022-11-20T06:07:42;14.73;;;7.80;;
17133;SDS011;8682;52.120;5.252;2022-11-20T06:10:09;13.50;;;8.77;;
17133;SDS011;8682;52.120;5.252;2022-11-20T06:12:36;8.67;;;7.67;;
17133;SDS011;8682;52.120;5.252;2022-11-20T06:15:04;11.57;;;8.37;;
17133;SDS011;8682;52.120;5.252;2022-11-20T06:17:31;11.47;;;8.23;;
17133;SDS011;8682;52.120;5.252;2022-11-20T06:19:58;8.63;;;7.83;;
17133;SDS011;8682;52.120;5.252;2022-11-20T06:22:25;9.43;;;8.43;;
17133;SDS011;8682;52.120;5.252;2022-11-20T06:24:54;12.27;;;7.77;;
17133;SDS011;8682;52.120;5.252;2022-11-20T06:27:21;11.40;;;7.80;;
17133;SDS011;8682;52.120;5.252;2022-11-20T06:29:48;8.37;;;7.57;;
17133;SDS011;8682;52.120;5.252;2022-11-20T06:32:15;12.40;;;8.47;;
17133;SDS011;8682;52.120;5.252;2022-11-20T06:34:42;11.90;;;7.33;;
17133;SDS011;8682;52.120;5.252;2022-11-20T06:37:09;10.63;;;8.10;;
17133;SDS011;8682;52.120;5.252;2022-11-20T06:39:37;10.67;;;8.53;;
17133;SDS011;8682;52.120;5.252;2022-11-20T06:42:05;9.80;;;8.10;;
17133;SDS011;8682;52.120;5.252;2022-11-20T06:44:32;8.33;;;6.63;;
17133;SDS011;8682;52.120;5.252;2022-11-20T06:46:59;13.43;;;8.13;;
17133;SDS011;8682;52.120;5.252;2022-11-20T06:49:27;12.07;;;8.37;;
17133;SDS011;8682;52.120;5.252;2022-11-20T06:51:55;9.97;;;8.40;;
17133;SDS011;8682;52.120;5.252;2022-11-20T06:54:22;12.23;;;8.50;;
17133;SDS011;8682;52.120;5.252;2022-11-20T06:56:49;11.87;;;9.03;;
17133;SDS011;8682;52.120;5.252;2022-11-20T06:59:18;9.37;;;7.90;;
17133;SDS011;8682;52.120;5.252;2022-11-20T07:01:45;9.07;;;7.43;;
17133;SDS011;8682;52.120;5.252;2022-11-20T07:04:12;12.60;;;8.73;;
17133;SDS011;8682;52.120;5.252;2022-11-20T07:06:39;8.00;;;7.13;;
17133;SDS011;8682;52.120;5.252;2022-11-20T07:09:06;9.60;;;7.50;;
17133;SDS011;8682;52.120;5.252;2022-11-20T07:11:33;9.43;;;8.37;;
17133;SDS011;8682;52.120;5.252;2022-11-20T07:14:01;8.77;;;7.40;;
17133;SDS011;8682;52.120;5.252;2022-11-20T07:16:29;16.77;;;8.53;;
17133;SDS011;8682;52.120;5.252;2022-11-20T07:18:56;13.20;;;9.43;;
17133;SDS011;8682;52.120;5.252;2022-11-20T07:21:24;9.70;;;8.60;;
17133;SDS011;8682;52.120;5.252;2022-11-20T07:23:51;14.50;;;9.43;;
17133;SDS011;8682;52.120;5.252;2022-11-20T07:26:18;10.67;;;9.57;;
17133;SDS011;8682;52.120;5.252;2022-11-20T07:28:45;12.23;;;9.37;;
17133;SDS011;8682;52.120;5.252;2022-11-20T07:31:12;10.43;;;9.30;;
17133;SDS011;8682;52.120;5.252;2022-11-20T07:33:41;14.00;;;10.27;;
17133;SDS011;8682;52.120;5.252;2022-11-20T07:36:08;12.90;;;10.93;;
17133;SDS011;8682;52.120;5.252;2022-11-20T07:38:36;10.83;;;9.73;;
17133;SDS011;8682;52.120;5.252;2022-11-20T07:41:04;10.50;;;9.53;;
17133;SDS011;8682;52.120;5.252;2022-11-20T07:43:31;11.10;;;9.33;;
17133;SDS011;8682;52.120;5.252;2022-11-20T07:45:58;8.90;;;7.97;;
17133;SDS011;8682;52.120;5.252;2022-11-20T07:48:26;9.70;;;8.77;;
17133;SDS011;8682;52.120;5.252;2022-11-20T07:50:55;9.87;;;8.40;;
17133;SDS011;8682;52.120;5.252;2022-11-20T07:53:22;11.37;;;8.27;;
17133;SDS011;8682;52.120;5.252;2022-11-20T07:55:49;9.77;;;7.73;;
17133;SDS011;8682;52.120;5.252;2022-11-20T07:58:17;12.10;;;8.50;;
17133;SDS011;8682;52.120;5.252;2022-11-20T08:00:45;11.83;;;9.13;;
17133;SDS011;8682;52.120;5.252;2022-11-20T08:03:12;12.73;;;11.50;;
17133;SDS011;8682;52.120;5.252;2022-11-20T08:05:39;18.60;;;16.83;;
17133;SDS011;8682;52.120;5.252;2022-11-20T08:08:08;21.33;;;19.67;;
17133;SDS011;8682;52.120;5.252;2022-11-20T08:10:35;25.63;;;23.53;;
17133;SDS011;8682;52.120;5.252;2022-11-20T08:13:02;29.60;;;27.43;;
17133;SDS011;8682;52.120;5.252;2022-11-20T08:15:47;27.67;;;25.67;;
17133;SDS011;8682;52.120;5.252;2022-11-20T08:18:16;27.83;;;25.80;;
17133;SDS011;8682;52.120;5.252;2022-11-20T08:20:43;25.40;;;23.27;;
17133;SDS011;8682;52.120;5.252;2022-11-20T08:23:12;21.47;;;19.43;;
17133;SDS011;8682;52.120;5.252;2022-11-20T08:25:40;17.77;;;16.07;;
17133;SDS011;8682;52.120;5.252;2022-11-20T08:28:08;14.20;;;12.90;;
17133;SDS011;8682;52.120;5.252;2022-11-20T08:30:35;14.17;;;11.73;;
17133;SDS011;8682;52.120;5.252;2022-11-20T08:33:03;12.73;;;9.83;;
17133;SDS011;8682;52.120;5.252;2022-11-20T08:35:32;15.00;;;10.20;;
17133;SDS011;8682;52.120;5.252;2022-11-20T08:38:00;13.20;;;10.67;;
17133;SDS011;8682;52.120;5.252;2022-11-20T08:40:28;13.27;;;10.30;;
17133;SDS011;8682;52.120;5.252;2022-11-20T08:42:55;17.37;;;10.87;;
17133;SDS011;8682;52.120;5.252;2022-11-20T08:45:23;15.70;;;13.47;;
17133;SDS011;8682;52.120;5.252;2022-11-20T08:47:50;18.63;;;16.70;;
17133;SDS011;8682;52.120;5.252;2022-11-20T08:50:17;25.03;;;22.43;;
17133;SDS011;8682;52.120;5.252;2022-11-20T08:52:45;24.23;;;21.70;;
17133;SDS011;8682;52.120;5.252;2022-11-20T08:55:12;26.33;;;23.97;;
17133;SDS011;8682;52.120;5.252;2022-11-20T08:57:41;22.33;;;20.37;;
17133;SDS011;8682;52.120;5.252;2022-11-20T09:00:09;23.87;;;21.30;;
17133;SDS011;8682;52.120;5.252;2022-11-20T09:02:37;23.87;;;21.00;;
17133;SDS011;8682;52.120;5.252;2022-11-20T09:05:05;24.60;;;22.03;;
17133;SDS011;8682;52.120;5.252;2022-11-20T09:07:33;26.53;;;19.43;;
17133;SDS011;8682;52.120;5.252;2022-11-20T09:10:00;20.37;;;17.93;;
17133;SDS011;8682;52.120;5.252;2022-11-20T09:12:27;20.27;;;18.27;;
17133;SDS011;8682;52.120;5.252;2022-11-20T09:14:56;21.67;;;18.27;;
17133;SDS011;8682;52.120;5.252;2022-11-20T09:17:23;19.70;;;17.63;;
17133;SDS011;8682;52.120;5.252;2022-11-20T09:19:50;20.20;;;14.50;;
17133;SDS011;8682;52.120;5.252;2022-11-20T09:22:19;16.80;;;12.80;;
17133;SDS011;8682;52.120;5.252;2022-11-20T09:24:46;17.20;;;12.83;;
17133;SDS011;8682;52.120;5.252;2022-11-20T09:27:14;17.60;;;12.53;;
17133;SDS011;8682;52.120;5.252;2022-11-20T09:29:45;23.67;;;13.27;;
17133;SDS011;8682;52.120;5.252;2022-11-20T09:32:14;15.00;;;12.47;;
17133;SDS011;8682;52.120;5.252;2022-11-20T09:34:41;20.57;;;13.13;;
17133;SDS011;8682;52.120;5.252;2022-11-20T09:37:08;1999.90;;;956.05;;
17133;SDS011;8682;52.120;5.252;2022-11-20T09:39:35;1371.13;;;647.47;;
17133;SDS011;8682;52.120;5.252;2022-11-20T09:44:51;17.57;;;14.43;;
17133;SDS011;8682;52.120;5.252;2022-11-20T09:47:24;18.30;;;13.40;;
17133;SDS011;8682;52.120;5.252;2022-11-20T09:49:57;15.27;;;12.07;;
17133;SDS011;8682;52.120;5.252;2022-11-20T09:52:30;18.47;;;12.53;;
17133;SDS011;8682;52.120;5.252;2022-11-20T09:55:00;19.43;;;13.63;;
17133;SDS011;8682;52.120;5.252;2022-11-20T09:57:29;15.13;;;11.47;;
17133;SDS011;8682;52.120;5.252;2022-11-20T10:00:00;16.70;;;11.87;;
17133;SDS011;8682;52.120;5.252;2022-11-20T10:02:29;16.53;;;12.47;;
17133;SDS011;8682;52.120;5.252;2022-11-20T10:04:59;15.93;;;12.47;;
17133;SDS011;8682;52.120;5.252;2022-11-20T10:07:28;17.93;;;12.13;;
17133;SDS011;8682;52.120;5.252;2022-11-20T10:09:56;20.17;;;12.80;;
17133;SDS011;8682;52.120;5.252;2022-11-20T10:12:26;20.73;;;13.03;;
17133;SDS011;8682;52.120;5.252;2022-11-20T10:15:00;17.37;;;12.60;;
17133;SDS011;8682;52.120;5.252;2022-11-20T10:17:33;18.73;;;12.70;;
17133;SDS011;8682;52.120;5.252;2022-11-20T10:20:14;17.27;;;13.33;;
17133;SDS011;8682;52.120;5.252;2022-11-20T10:22:46;23.60;;;13.57;;
17133;SDS011;8682;52.120;5.252;2022-11-20T10:25:14;16.67;;;12.00;;
17133;SDS011;8682;52.120;5.252;2022-11-20T10:27:48;15.10;;;12.27;;
17133;SDS011;8682;52.120;5.252;2022-11-20T10:30:20;21.00;;;13.33;;
17133;SDS011;8682;52.120;5.252;2022-11-20T10:32:52;18.17;;;12.30;;
17133;SDS011;8682;52.120;5.252;2022-11-20T10:35:20;21.53;;;13.23;;
17133;SDS011;8682;52.120;5.252;2022-11-20T10:37:49;18.50;;;13.83;;
17133;SDS011;8682;52.120;5.252;2022-11-20T10:40:20;20.50;;;13.50;;
17133;SDS011;8682;52.120;5.252;2022-11-20T10:42:50;23.90;;;13.23;;
17133;SDS011;8682;52.120;5.252;2022-11-20T10:45:21;19.43;;;14.37;;
17133;SDS011;8682;52.120;5.252;2022-11-20T10:47:53;19.73;;;15.97;;
17133;SDS011;8682;52.120;5.252;2022-11-20T10:50:21;26.23;;;19.27;;
17133;SDS011;8682;52.120;5.252;2022-11-20T10:52:51;22.80;;;19.07;;
17133;SDS011;8682;52.120;5.252;2022-11-20T10:55:25;20.33;;;17.53;;
17133;SDS011;8682;52.120;5.252;2022-11-20T10:57:58;23.23;;;19.50;;
17133;SDS011;8682;52.120;5.252;2022-11-20T11:00:30;21.33;;;18.83;;
17133;SDS011;8682;52.120;5.252;2022-11-20T11:02:58;23.60;;;19.63;;
17133;SDS011;8682;52.120;5.252;2022-11-20T11:05:31;21.97;;;19.33;;
17133;SDS011;8682;52.120;5.252;2022-11-20T11:08:00;25.63;;;20.13;;
17133;SDS011;8682;52.120;5.252;2022-11-20T11:10:30;25.53;;;19.17;;
17133;SDS011;8682;52.120;5.252;2022-11-20T11:12:59;25.80;;;18.53;;
17133;SDS011;8682;52.120;5.252;2022-11-20T11:15:28;21.50;;;19.17;;
17133;SDS011;8682;52.120;5.252;2022-11-20T11:17:56;23.17;;;17.97;;
17133;SDS011;8682;52.120;5.252;2022-11-20T11:20:25;23.73;;;18.67;;
17133;SDS011;8682;52.120;5.252;2022-11-20T11:22:53;23.73;;;19.73;;
17133;SDS011;8682;52.120;5.252;2022-11-20T11:25:22;23.80;;;18.90;;
17133;SDS011;8682;52.120;5.252;2022-11-20T11:27:50;23.17;;;19.93;;
17133;SDS011;8682;52.120;5.252;2022-11-20T11:30:21;30.40;;;20.30;;
17133;SDS011;8682;52.120;5.252;2022-11-20T11:32:48;26.80;;;19.10;;
17133;SDS011;8682;52.120;5.252;2022-11-20T11:35:20;26.10;;;20.40;;
17133;SDS011;8682;52.120;5.252;2022-11-20T11:37:49;30.77;;;22.20;;
17133;SDS011;8682;52.120;5.252;2022-11-20T11:40:19;28.77;;;21.33;;
17133;SDS011;8682;52.120;5.252;2022-11-20T11:42:47;33.83;;;23.27;;
17133;SDS011;8682;52.120;5.252;2022-11-20T11:45:17;25.17;;;20.37;;
17133;SDS011;8682;52.120;5.252;2022-11-20T11:47:44;31.33;;;22.67;;
17133;SDS011;8682;52.120;5.252;2022-11-20T11:50:16;31.20;;;22.83;;
17133;SDS011;8682;52.120;5.252;2022-11-20T11:52:45;33.97;;;26.17;;
17133;SDS011;8682;52.120;5.252;2022-11-20T11:55:17;60.23;;;46.67;;
17133;SDS011;8682;52.120;5.252;2022-11-20T11:57:46;101.80;;;82.60;;
17133;SDS011;8682;52.120;5.252;2022-11-20T12:00:16;156.50;;;118.43;;
17133;SDS011;8682;52.120;5.252;2022-11-20T12:02:48;255.57;;;155.80;;
17133;SDS011;8682;52.120;5.252;2022-11-20T12:05:17;162.80;;;96.17;;
17133;SDS011;8682;52.120;5.252;2022-11-20T12:07:45;294.80;;;160.13;;
17133;SDS011;8682;52.120;5.252;2022-11-20T12:10:17;233.53;;;171.30;;
17133;SDS011;8682;52.120;5.252;2022-11-20T12:12:47;333.57;;;187.70;;
17133;SDS011;8682;52.120;5.252;2022-11-20T12:15:19;521.93;;;255.50;;
17133;SDS011;8682;52.120;5.252;2022-11-20T12:17:49;1000.63;;;518.73;;
17133;SDS011;8682;52.120;5.252;2022-11-20T12:20:17;567.50;;;262.43;;
17133;SDS011;8682;52.120;5.252;2022-11-20T12:22:47;704.30;;;315.83;;
17133;SDS011;8682;52.120;5.252;2022-11-20T12:25:18;597.87;;;318.23;;
17133;SDS011;8682;52.120;5.252;2022-11-20T12:27:49;1173.03;;;560.73;;
17133;SDS011;8682;52.120;5.252;2022-11-20T12:30:19;660.70;;;312.73;;
17133;SDS011;8682;52.120;5.252;2022-11-20T12:32:58;689.37;;;297.10;;
17133;SDS011;8682;52.120;5.252;2022-11-20T12:38:23;462.80;;;231.43;;
17133;SDS011;8682;52.120;5.252;2022-11-20T12:40:58;572.77;;;276.30;;
17133;SDS011;8682;52.120;5.252;2022-11-20T12:43:30;1098.40;;;537.37;;
17133;SDS011;8682;52.120;5.252;2022-11-20T12:46:18;1035.20;;;525.80;;
17133;SDS011;8682;52.120;5.252;2022-11-20T12:48:51;594.40;;;278.97;;
17133;SDS011;8682;52.120;5.252;2022-11-20T12:51:24;1160.67;;;581.23;;
17133;SDS011;8682;52.120;5.252;2022-11-20T12:53:57;1999.90;;;999.90;;
17133;SDS011;8682;52.120;5.252;2022-11-20T12:56:31;1147.17;;;566.00;;
17133;SDS011;8682;52.120;5.252;2022-11-20T12:59:07;1999.90;;;999.90;;
17133;SDS011;8682;52.120;5.252;2022-11-20T13:01:38;1999.90;;;999.90;;
17133;SDS011;8682;52.120;5.252;2022-11-20T13:04:13;1999.90;;;999.90;;
17133;SDS011;8682;52.120;5.252;2022-11-20T13:06:43;1999.90;;;999.90;;
17133;SDS011;8682;52.120;5.252;2022-11-20T13:09:12;1212.20;;;584.33;;
17133;SDS011;8682;52.120;5.252;2022-11-20T13:11:42;1112.83;;;540.43;;
17133;SDS011;8682;52.120;5.252;2022-11-20T13:14:12;1236.63;;;611.37;;
17133;SDS011;8682;52.120;5.252;2022-11-20T13:16:44;1175.33;;;583.97;;
17133;SDS011;8682;52.120;5.252;2022-11-20T13:19:13;1999.90;;;999.90;;
17133;SDS011;8682;52.120;5.252;2022-11-20T13:21:42;1999.90;;;999.90;;
17133;SDS011;8682;52.120;5.252;2022-11-20T13:24:20;1999.90;;;999.90;;
17133;SDS011;8682;52.120;5.252;2022-11-20T13:27:00;1999.90;;;999.90;;
17133;SDS011;8682;52.120;5.252;2022-11-20T13:29:28;1999.90;;;999.90;;
17133;SDS011;8682;52.120;5.252;2022-11-20T13:32:02;1999.90;;;999.90;;
17133;SDS011;8682;52.120;5.252;2022-11-20T13:34:30;1999.90;;;999.90;;
17133;SDS011;8682;52.120;5.252;2022-11-20T13:36:58;1999.90;;;999.90;;
17133;SDS011;8682;52.120;5.252;2022-11-20T13:39:29;1999.90;;;999.90;;
17133;SDS011;8682;52.120;5.252;2022-11-20T13:41:57;1273.03;;;621.80;;
17133;SDS011;8682;52.120;5.252;2022-11-20T13:44:27;1999.90;;;999.90;;
17133;SDS011;8682;52.120;5.252;2022-11-20T13:46:55;1999.90;;;999.90;;
17133;SDS011;8682;52.120;5.252;2022-11-20T13:49:24;1295.90;;;595.97;;
17133;SDS011;8682;52.120;5.252;2022-11-20T13:51:54;1999.90;;;999.90;;
17133;SDS011;8682;52.120;5.252;2022-11-20T13:57:30;1196.10;;;575.60;;
17133;SDS011;8682;52.120;5.252;2022-11-20T14:00:04;1999.90;;;999.90;;
17133;SDS011;8682;52.120;5.252;2022-11-20T14:02:36;1999.90;;;999.90;;
17133;SDS011;8682;52.120;5.252;2022-11-20T14:05:04;1999.90;;;999.90;;
17133;SDS011;8682;52.120;5.252;2022-11-20T14:07:32;1999.90;;;999.90;;
17133;SDS011;8682;52.120;5.252;2022-11-20T14:10:02;1999.90;;;999.90;;
17133;SDS011;8682;52.120;5.252;2022-11-20T14:12:30;1999.90;;;999.90;;
17133;SDS011;8682;52.120;5.252;2022-11-20T14:14:58;1999.90;;;999.90;;
17133;SDS011;8682;52.120;5.252;2022-11-20T14:17:31;1999.90;;;999.90;;
17133;SDS011;8682;52.120;5.252;2022-11-20T14:19:59;1999.90;;;999.90;;
17133;SDS011;8682;52.120;5.252;2022-11-20T14:22:27;1999.90;;;999.90;;
17133;SDS011;8682;52.120;5.252;2022-11-20T14:25:01;1999.90;;;999.90;;
17133;SDS011;8682;52.120;5.252;2022-11-20T14:27:29;1999.90;;;999.90;;
17133;SDS011;8682;52.120;5.252;2022-11-20T14:30:00;1999.90;;;999.90;;
17133;SDS011;8682;52.120;5.252;2022-11-20T14:32:28;1999.90;;;999.90;;
17133;SDS011;8682;52.120;5.252;2022-11-20T14:34:58;1999.90;;;999.90;;
17133;SDS011;8682;52.120;5.252;2022-11-20T14:37:28;1999.90;;;999.90;;
17133;SDS011;8682;52.120;5.252;2022-11-20T14:40:00;1999.90;;;999.90;;
17133;SDS011;8682;52.120;5.252;2022-11-20T14:42:28;1999.90;;;999.90;;
17133;SDS011;8682;52.120;5.252;2022-11-20T14:44:56;1999.90;;;999.90;;
17133;SDS011;8682;52.120;5.252;2022-11-20T14:47:24;1999.90;;;999.90;;
17133;SDS011;8682;52.120;5.252;2022-11-20T14:49:52;1999.90;;;999.90;;